Portada
METAR-TAF:

METAR-TAF

Aeroports :

Statesville Regional Airport

Statesville, Carolina del Nord, Estats Units d'Amèrica

latitud: 35-45-55N, longitud: 080-57-24W, altitud: 294 m

Observació

L'informe es va fer fa 31 minuts, a les 22:55 UTC
Vent calma
Temperatura 1°C
Humitat 47%
Pressió 1027 hPa
Visibilitat: 16.1 km
Cel clar

METAR: KSVH 132255Z AUTO 00000KT 10SM CLR 01/M09 A3034 RMK AO2 T00101091

Hora: 18:26 (23:26 UTC)


TAF: manca

Observacions i pronòstics meteorològics de més de 4000 aeroports (METAR i TAF).

Les estacions disponibles són els punts grocs i vermells al mapa.

Posi el ratolí al punt desitjat per veure el nom de l'estació.

Feu clic per veure les observacions i els pronòstics meteorològics.

Per canviar el mapa: feu clic els botons verds amb una creu de color negre per apropar; al botó verd amb un guió per allunyar la imatge; o en les fletxes verdes per a mapes adjacents.


METAR-TAF: